Santa Monica, California
Current Conditions -  °F | °C
As of 12:51 AM on Friday 24 Oct 2014 (Local Time) from KSMO Reporting Station
Clear Clear  
Wind Chill: 18°   Ceiling: Unl
Heat Index: 18°   Visibility: 10mi
Dew Point:   Wind: 0mph
Humidity: 40%   Direction: NA
Pressure: 29.97"   Gusts: NA
Location:  34.01°N, 118.49°W
Report Text: KSMO 240751Z AUTO 00000KT 10SM CLR 18/04 A2997 RMK AO2 SLP147 T01780039 402560150
Loading
Personal Weather Stations






























Interactive Weather Map
Tropical Storm Tracking
New forecast layout! Learn more

10-Day Weather Forecast

Advertisements
Track Severe Weather on mobile